createdAt,value
2022-09-28T00:00:16.321Z,70.19
2022-09-28T00:02:45.813Z,70.21
2022-09-28T00:05:14.779Z,70.23
2022-09-28T00:07:44.949Z,70.20
2022-09-28T00:10:17.391Z,70.26
2022-09-28T00:12:46.106Z,70.33
2022-09-28T00:15:14.799Z,70.55
2022-09-28T00:17:46.229Z,70.41
2022-09-28T00:20:19.371Z,70.54
2022-09-28T00:22:47.989Z,70.48
2022-09-28T00:25:22.249Z,70.54
2022-09-28T00:27:52.029Z,70.52
2022-09-28T00:30:20.599Z,70.51
2022-09-28T00:32:52.147Z,70.45
2022-09-28T00:35:20.858Z,70.44
2022-09-28T00:37:51.179Z,70.53
2022-09-28T00:40:22.455Z,70.60
2022-09-28T00:42:51.004Z,70.46
2022-09-28T00:45:19.719Z,70.35
2022-09-28T00:47:54.230Z,70.37
2022-09-28T00:50:28.319Z,70.40
2022-09-28T00:53:03.419Z,70.56
2022-09-28T00:55:41.999Z,70.53
2022-09-28T00:58:15.822Z,70.46
2022-09-28T01:00:48.092Z,70.53
2022-09-28T01:03:17.889Z,70.56
2022-09-28T01:05:48.729Z,70.67
2022-09-28T01:08:23.149Z,70.45
2022-09-28T01:10:55.530Z,70.50
2022-09-28T01:13:26.130Z,70.51
2022-09-28T01:16:08.351Z,70.48
2022-09-28T01:18:44.850Z,70.44
2022-09-28T01:21:22.201Z,70.39
2022-09-28T01:24:18.531Z,70.39
2022-09-28T01:27:02.200Z,70.41
2022-09-28T01:29:40.500Z,70.63
2022-09-28T01:32:18.419Z,70.27
2022-09-28T01:34:56.039Z,70.72
2022-09-28T01:37:35.638Z,70.60
2022-09-28T01:40:13.589Z,70.55
2022-09-28T01:42:48.819Z,70.38
2022-09-28T01:45:27.472Z,70.58
2022-09-28T01:47:59.791Z,70.37
2022-09-28T01:50:31.549Z,70.32
2022-09-28T01:53:05.919Z,70.52
2022-09-28T01:55:37.949Z,70.44
2022-09-28T01:58:15.119Z,70.47
2022-09-28T02:00:49.029Z,70.45
2022-09-28T02:03:23.499Z,70.49
2022-09-28T02:05:58.839Z,70.36
2022-09-28T02:08:31.590Z,70.55
2022-09-28T02:11:10.029Z,70.44
2022-09-28T02:13:49.560Z,70.57
2022-09-28T02:16:23.946Z,70.43
2022-09-28T02:18:53.409Z,70.39
2022-09-28T02:21:31.060Z,70.54
2022-09-28T02:24:03.088Z,70.48
2022-09-28T02:26:36.902Z,70.62
2022-09-28T02:29:06.969Z,70.52
2022-09-28T02:31:36.378Z,70.57
2022-09-28T02:34:09.200Z,70.55
2022-09-28T02:36:40.549Z,70.56
2022-09-28T02:39:15.378Z,70.67
2022-09-28T02:41:56.492Z,70.56
2022-09-28T02:44:54.929Z,70.69
2022-09-28T02:47:33.346Z,70.63
2022-09-28T02:50:14.568Z,70.65
2022-09-28T02:53:04.819Z,70.46
2022-09-28T02:55:46.558Z,70.68
2022-09-28T02:58:25.750Z,70.88
2022-09-28T03:01:06.029Z,70.59
2022-09-28T03:03:50.129Z,70.82
2022-09-28T03:06:24.760Z,70.71
2022-09-28T03:09:02.029Z,70.66
2022-09-28T03:11:39.350Z,70.59
2022-09-28T03:14:08.632Z,70.80
2022-09-28T03:16:45.096Z,70.68
2022-09-28T03:19:15.160Z,70.77
2022-09-28T03:21:43.809Z,70.73
2022-09-28T03:24:12.639Z,70.70
2022-09-28T03:26:42.219Z,70.83
2022-09-28T03:29:16.040Z,70.89
2022-09-28T03:31:51.254Z,70.80
2022-09-28T03:34:19.959Z,70.84
2022-09-28T03:36:48.540Z,70.79
2022-09-28T03:39:17.302Z,70.98
2022-09-28T03:41:46.073Z,71.04
2022-09-28T03:44:17.439Z,70.95
2022-09-28T03:46:48.329Z,70.89
2022-09-28T03:49:23.220Z,70.88
2022-09-28T03:51:51.979Z,70.85
2022-09-28T03:54:22.151Z,70.84
2022-09-28T03:56:55.539Z,70.88
2022-09-28T03:59:24.159Z,70.88
2022-09-28T04:01:54.423Z,70.86
2022-09-28T04:04:22.969Z,70.91
2022-09-28T04:06:51.459Z,70.74
2022-09-28T04:09:20.219Z,70.95
2022-09-28T04:12:03.476Z,70.86
2022-09-28T04:14:33.050Z,70.89
2022-09-28T04:17:03.048Z,70.77
2022-09-28T04:19:31.589Z,70.84
2022-09-28T04:22:02.100Z,70.46
2022-09-28T04:24:32.209Z,70.78
2022-09-28T04:27:14.493Z,70.82
2022-09-28T04:29:47.660Z,70.74
2022-09-28T04:32:17.840Z,70.87
2022-09-28T04:34:46.419Z,70.87
2022-09-28T04:37:21.430Z,70.77
2022-09-28T04:39:50.049Z,70.81
2022-09-28T04:42:25.253Z,70.81
2022-09-28T04:44:53.900Z,70.83
2022-09-28T04:47:24.360Z,70.80
2022-09-28T04:49:52.999Z,70.81
2022-09-28T04:52:24.140Z,70.73
2022-09-28T04:54:52.678Z,70.80
2022-09-28T04:57:24.786Z,70.86
2022-09-28T04:59:53.430Z,70.76
2022-09-28T05:02:26.674Z,70.69
2022-09-28T05:04:59.139Z,70.89
2022-09-28T05:07:28.339Z,70.76
2022-09-28T05:09:56.999Z,70.63
2022-09-28T05:12:25.878Z,70.87
2022-09-28T05:14:57.359Z,70.58
2022-09-28T05:17:26.208Z,70.64
2022-09-28T05:19:58.509Z,70.42
2022-09-28T05:22:27.108Z,70.51
2022-09-28T05:24:56.239Z,70.33
2022-09-28T05:27:25.039Z,70.46
2022-09-28T05:29:53.668Z,70.32
2022-09-28T05:32:22.612Z,70.40
2022-09-28T05:34:51.228Z,70.37
2022-09-28T05:37:23.009Z,70.25
2022-09-28T05:39:51.610Z,70.13
2022-09-28T05:42:23.129Z,70.33
2022-09-28T05:44:53.348Z,70.38
2022-09-28T05:47:22.459Z,70.33
2022-09-28T05:49:58.219Z,70.46
2022-09-28T05:52:27.879Z,70.37
2022-09-28T05:55:00.650Z,70.32
2022-09-28T05:57:32.357Z,70.08
2022-09-28T06:00:01.053Z,70.19
2022-09-28T06:02:33.709Z,70.08
2022-09-28T06:05:02.429Z,70.40
2022-09-28T06:07:33.508Z,70.39
2022-09-28T06:10:07.620Z,70.15
2022-09-28T06:12:38.789Z,70.13
2022-09-28T06:15:11.024Z,70.23
2022-09-28T06:17:43.990Z,70.22
2022-09-28T06:20:13.133Z,69.93
2022-09-28T06:22:44.169Z,69.89
2022-09-28T06:25:16.229Z,69.93
2022-09-28T06:27:47.009Z,69.83
2022-09-28T06:30:16.039Z,69.85
2022-09-28T06:32:44.639Z,69.91
2022-09-28T06:35:15.793Z,70.01
2022-09-28T06:37:47.701Z,69.91
2022-09-28T06:40:17.648Z,69.81
2022-09-28T06:42:47.599Z,69.98
2022-09-28T06:45:16.270Z,69.86
2022-09-28T06:47:45.094Z,69.95
2022-09-28T06:50:14.840Z,70.14
2022-09-28T06:52:44.550Z,70.18
2022-09-28T06:55:14.769Z,70.31
2022-09-28T06:57:45.131Z,70.47
2022-09-28T07:00:15.169Z,70.69
2022-09-28T07:02:53.490Z,71.05
2022-09-28T07:05:26.927Z,70.93
2022-09-28T07:07:59.390Z,71.04
2022-09-28T07:10:30.652Z,70.99
2022-09-28T07:13:07.324Z,70.86
2022-09-28T07:15:37.499Z,70.86
2022-09-28T07:18:08.392Z,70.78
2022-09-28T07:20:50.461Z,70.80
2022-09-28T07:23:23.638Z,70.86
2022-09-28T07:25:53.779Z,71.08
2022-09-28T07:28:22.699Z,70.92
2022-09-28T07:30:51.689Z,70.95
2022-09-28T07:33:20.290Z,70.78
2022-09-28T07:35:55.949Z,70.94
2022-09-28T07:38:26.299Z,70.80
2022-09-28T07:41:21.819Z,70.91
2022-09-28T07:43:51.373Z,70.99
2022-09-28T07:46:23.545Z,70.56
2022-09-28T07:48:52.329Z,70.55
2022-09-28T07:51:23.982Z,70.53
2022-09-28T07:53:54.409Z,70.55
2022-09-28T07:56:25.629Z,70.61
2022-09-28T07:58:54.469Z,70.56
2022-09-28T08:01:25.786Z,70.61
2022-09-28T08:03:58.409Z,70.66
2022-09-28T08:06:28.361Z,70.56
2022-09-28T08:08:57.289Z,70.56
2022-09-28T08:11:29.040Z,70.52
2022-09-28T08:13:58.440Z,70.13
2022-09-28T08:16:39.167Z,69.62
2022-09-28T08:19:07.710Z,69.51
2022-09-28T08:21:45.399Z,69.61
2022-09-28T08:24:16.431Z,69.67
2022-09-28T08:26:46.569Z,69.67
2022-09-28T08:29:15.590Z,69.72
2022-09-28T08:31:44.200Z,69.79
2022-09-28T08:34:12.880Z,69.74
2022-09-28T08:36:41.620Z,69.59
2022-09-28T08:39:11.469Z,69.74
2022-09-28T08:41:51.149Z,69.65
2022-09-28T08:44:24.438Z,69.70
2022-09-28T08:46:57.660Z,69.75
2022-09-28T08:49:31.659Z,69.54
2022-09-28T08:52:04.839Z,69.37
2022-09-28T08:54:41.350Z,69.17
2022-09-28T08:57:17.120Z,69.10
2022-09-28T08:59:48.371Z,69.22
2022-09-28T09:02:22.639Z,68.96
2022-09-28T09:04:53.028Z,68.96
2022-09-28T09:07:54.493Z,68.91
2022-09-28T09:10:46.949Z,69.01
2022-09-28T09:13:39.979Z,69.27
2022-09-28T09:16:21.607Z,68.78
2022-09-28T09:18:57.609Z,68.75
2022-09-28T09:21:41.010Z,68.73
2022-09-28T09:24:27.571Z,68.81
2022-09-28T09:27:07.171Z,68.57
2022-09-28T09:29:52.761Z,68.60
2022-09-28T09:32:40.629Z,68.62
2022-09-28T09:35:29.689Z,68.32
2022-09-28T09:38:17.598Z,68.45
2022-09-28T09:40:59.795Z,68.34
2022-09-28T09:43:49.119Z,68.00
2022-09-28T09:46:23.936Z,68.07
2022-09-28T09:48:57.315Z,67.84
2022-09-28T09:51:34.829Z,67.77
2022-09-28T09:54:09.235Z,67.91
2022-09-28T09:56:41.989Z,67.80
2022-09-28T09:59:16.645Z,67.56
2022-09-28T10:01:47.488Z,67.70
2022-09-28T10:04:22.421Z,67.62
2022-09-28T10:06:54.409Z,67.52
2022-09-28T10:09:27.969Z,67.37
2022-09-28T10:11:56.790Z,67.14
2022-09-28T10:14:26.959Z,66.84
2022-09-28T10:16:59.464Z,66.74
2022-09-28T10:19:34.760Z,66.55
2022-09-28T10:22:06.849Z,66.49
2022-09-28T10:24:40.233Z,66.29
2022-09-28T10:27:14.462Z,66.44
2022-09-28T10:29:52.369Z,66.09
2022-09-28T10:32:28.019Z,66.19
2022-09-28T10:35:21.889Z,66.08
2022-09-28T10:37:56.569Z,65.96
2022-09-28T10:40:33.351Z,65.95
2022-09-28T10:43:04.359Z,65.73
2022-09-28T10:45:38.613Z,65.77
2022-09-28T10:48:19.489Z,66.04
2022-09-28T10:51:01.629Z,65.55
2022-09-28T10:53:30.409Z,65.63
2022-09-28T10:56:03.414Z,65.65
2022-09-28T10:58:39.639Z,65.53
2022-09-28T11:01:15.586Z,65.48
2022-09-28T11:03:57.029Z,65.62
2022-09-28T11:06:30.879Z,65.60
2022-09-28T11:09:05.770Z,65.69
2022-09-28T11:11:42.239Z,65.39
2022-09-28T11:14:26.572Z,65.36
2022-09-28T11:17:20.619Z,65.37
2022-09-28T11:19:50.990Z,65.09
2022-09-28T11:22:29.080Z,65.14
2022-09-28T11:25:28.636Z,65.38
2022-09-28T11:28:01.089Z,65.15
2022-09-28T11:30:33.144Z,64.97
2022-09-28T11:33:06.555Z,64.99
2022-09-28T11:35:47.810Z,65.13
2022-09-28T11:38:42.122Z,64.79
2022-09-28T11:41:27.419Z,64.55
2022-09-28T11:44:35.440Z,64.53
2022-09-28T11:47:33.860Z,64.42
2022-09-28T11:50:26.070Z,64.62
2022-09-28T11:53:15.559Z,64.29
2022-09-28T11:55:59.019Z,64.55
2022-09-28T11:58:36.569Z,64.35
2022-09-28T12:01:25.079Z,64.15
2022-09-28T12:04:01.059Z,64.13
2022-09-28T12:06:39.898Z,64.30
2022-09-28T12:09:18.851Z,64.20
2022-09-28T12:11:54.959Z,64.06
2022-09-28T12:14:29.279Z,64.06
2022-09-28T12:17:07.692Z,63.94
2022-09-28T12:19:44.969Z,64.12
2022-09-28T12:22:24.041Z,63.86
2022-09-28T12:25:00.980Z,63.76
2022-09-28T12:27:41.540Z,64.08
2022-09-28T12:30:20.402Z,64.19
2022-09-28T12:32:54.980Z,64.05
2022-09-28T12:35:37.579Z,63.83
2022-09-28T12:38:32.630Z,63.94
2022-09-28T12:41:11.439Z,63.75
2022-09-28T12:44:11.249Z,63.29
2022-09-28T12:46:54.078Z,63.34
2022-09-28T12:52:35.734Z,62.96
2022-09-28T12:55:40.859Z,63.29
2022-09-28T12:58:30.465Z,63.35
2022-09-28T13:01:14.093Z,63.21
2022-09-28T13:04:14.629Z,63.58
2022-09-28T13:06:54.099Z,63.50
2022-09-28T13:09:31.740Z,63.29
2022-09-28T13:12:13.429Z,63.32
2022-09-28T13:15:24.089Z,63.55
2022-09-28T13:18:02.119Z,63.42
2022-09-28T13:20:50.989Z,62.96
2022-09-28T13:23:24.260Z,63.25
2022-09-28T13:25:57.739Z,63.14
2022-09-28T13:28:29.259Z,63.17
2022-09-28T13:31:00.348Z,63.10
2022-09-28T13:33:39.091Z,63.40
2022-09-28T13:36:47.868Z,63.31
2022-09-28T13:39:53.479Z,63.45
2022-09-28T13:42:30.780Z,63.44
2022-09-28T13:45:26.480Z,63.19
2022-09-28T13:48:20.506Z,62.67
2022-09-28T13:51:16.763Z,62.94
2022-09-28T13:54:11.160Z,62.77
2022-09-28T13:56:50.340Z,62.68
2022-09-28T13:59:24.590Z,62.81
2022-09-28T14:02:04.204Z,62.73
2022-09-28T14:04:57.728Z,62.82
2022-09-28T14:07:48.540Z,62.54
2022-09-28T14:10:24.803Z,62.49
2022-09-28T14:12:55.149Z,62.58
2022-09-28T14:15:45.787Z,62.80
2022-09-28T14:18:24.960Z,62.52
2022-09-28T14:21:17.850Z,62.58
2022-09-28T14:24:22.471Z,62.37
2022-09-28T14:27:20.580Z,62.44
2022-09-28T14:29:55.942Z,62.47
2022-09-28T14:32:27.189Z,62.40
2022-09-28T14:35:01.391Z,62.14
2022-09-28T14:37:50.699Z,62.07
2022-09-28T14:40:45.852Z,62.00
2022-09-28T14:43:27.897Z,61.62
2022-09-28T14:46:32.321Z,61.81
2022-09-28T14:49:09.789Z,62.58
2022-09-28T14:52:07.539Z,62.10
2022-09-28T14:54:56.152Z,62.66
2022-09-28T14:57:34.651Z,63.04
2022-09-28T15:00:21.710Z,63.12
2022-09-28T15:02:53.010Z,62.95
2022-09-28T15:05:26.489Z,63.08
2022-09-28T15:07:56.393Z,62.95
2022-09-28T15:10:42.959Z,63.24
2022-09-28T15:13:26.141Z,63.72
2022-09-28T15:16:01.019Z,63.65
2022-09-28T15:19:13.590Z,64.02
2022-09-28T15:21:49.012Z,63.88
2022-09-28T15:24:32.019Z,63.61
2022-09-28T15:27:05.704Z,63.82
2022-09-28T15:29:35.814Z,63.75
2022-09-28T15:32:07.069Z,63.64
2022-09-28T15:34:57.400Z,63.83
2022-09-28T15:37:40.250Z,63.79
2022-09-28T15:40:21.934Z,63.70
2022-09-28T15:42:50.749Z,63.21
2022-09-28T15:45:32.320Z,63.33
2022-09-28T15:48:21.649Z,63.38
2022-09-28T15:51:11.350Z,63.29
2022-09-28T15:53:44.909Z,63.15
2022-09-28T15:56:13.654Z,62.74
2022-09-28T15:58:45.234Z,63.54
2022-09-28T16:01:36.648Z,63.46
2022-09-28T16:04:50.999Z,63.74
2022-09-28T16:07:30.230Z,64.14
2022-09-28T16:10:01.712Z,63.80
2022-09-28T16:12:43.630Z,64.34
2022-09-28T16:15:26.470Z,64.45
2022-09-28T16:18:07.029Z,64.46
2022-09-28T16:20:40.621Z,64.72
2022-09-28T16:23:18.509Z,64.95
2022-09-28T16:25:54.251Z,64.60
2022-09-28T16:28:49.289Z,65.05
2022-09-28T16:31:51.633Z,64.91
2022-09-28T16:34:25.591Z,64.90
2022-09-28T16:36:56.390Z,64.96
2022-09-28T16:39:28.600Z,63.67
2022-09-28T16:42:02.072Z,61.22
2022-09-28T16:44:32.099Z,60.25
2022-09-28T16:47:01.649Z,59.44
2022-09-28T16:49:33.199Z,57.59
2022-09-28T16:52:02.149Z,59.24
2022-09-28T16:54:48.579Z,57.39
2022-09-28T16:57:18.329Z,55.78
2022-09-28T16:59:47.159Z,56.22
2022-09-28T17:02:42.145Z,58.03
2022-09-28T17:05:09.010Z,60.37
2022-09-28T17:07:37.661Z,61.53
2022-09-28T17:10:16.002Z,61.01
2022-09-28T17:12:47.780Z,61.02
2022-09-28T17:15:23.939Z,60.94
2022-09-28T17:17:52.519Z,61.60
2022-09-28T17:20:28.083Z,63.16
2022-09-28T17:22:56.481Z,63.49
2022-09-28T17:25:27.709Z,63.56
2022-09-28T17:28:00.810Z,63.94
2022-09-28T17:30:29.339Z,63.88
2022-09-28T17:32:59.551Z,64.15
2022-09-28T17:35:34.145Z,64.37
2022-09-28T17:38:06.160Z,64.43
2022-09-28T17:40:35.148Z,64.27
2022-09-28T17:43:09.229Z,64.40
2022-09-28T17:45:41.251Z,64.71
2022-09-28T17:48:15.981Z,63.55
2022-09-28T17:50:47.586Z,63.62
2022-09-28T17:53:17.879Z,62.89
2022-09-28T17:55:49.070Z,63.03
2022-09-28T17:58:20.350Z,63.77
2022-09-28T18:00:50.449Z,64.69
2022-09-28T18:03:21.482Z,64.92
2022-09-28T18:06:00.978Z,64.82
2022-09-28T18:08:31.009Z,64.54
2022-09-28T18:11:01.853Z,64.66
2022-09-28T18:13:30.541Z,64.77
2022-09-28T18:15:59.442Z,64.95
2022-09-28T18:18:28.979Z,62.93
2022-09-28T18:21:02.069Z,65.33
2022-09-28T18:23:30.709Z,65.18
2022-09-28T18:25:59.449Z,65.16
2022-09-28T18:28:31.519Z,65.10
2022-09-28T18:31:00.381Z,65.63
2022-09-28T18:36:17.799Z,65.85
2022-09-28T18:38:46.395Z,65.89
2022-09-28T18:41:17.049Z,65.62
2022-09-28T18:43:50.350Z,65.53
2022-09-28T18:46:26.804Z,65.43
2022-09-28T18:48:56.309Z,65.17
2022-09-28T18:51:26.751Z,65.34
2022-09-28T18:53:58.410Z,65.36
2022-09-28T18:56:27.158Z,65.58
2022-09-28T18:58:57.089Z,65.53
2022-09-28T19:01:29.984Z,65.70
2022-09-28T19:04:03.823Z,65.85
2022-09-28T19:06:37.080Z,65.61
2022-09-28T19:09:09.341Z,65.73
2022-09-28T19:11:40.488Z,65.80
2022-09-28T19:14:16.229Z,65.90
2022-09-28T19:16:44.858Z,65.83
2022-09-28T19:19:15.615Z,65.78
2022-09-28T19:21:51.732Z,65.91
2022-09-28T19:24:21.484Z,65.95
2022-09-28T19:26:51.149Z,65.85
2022-09-28T19:29:25.079Z,65.84
2022-09-28T19:31:57.034Z,65.53
2022-09-28T19:34:38.449Z,65.19
2022-09-28T19:37:10.303Z,65.19
2022-09-28T19:39:39.059Z,64.67
2022-09-28T19:42:10.410Z,64.77
2022-09-28T19:44:39.479Z,64.73
2022-09-28T19:47:10.292Z,64.45
2022-09-28T19:49:40.309Z,64.26
2022-09-28T19:52:16.391Z,64.42
2022-09-28T19:54:57.145Z,64.54
2022-09-28T19:57:28.103Z,64.64
2022-09-28T20:00:02.505Z,64.52
2022-09-28T20:02:32.200Z,64.43
2022-09-28T20:05:00.830Z,64.46
2022-09-28T20:07:35.210Z,64.07
2022-09-28T20:10:03.812Z,64.21
2022-09-28T20:12:32.651Z,64.30
2022-09-28T20:15:11.749Z,64.60
2022-09-28T20:17:40.411Z,64.83
2022-09-28T20:20:12.169Z,64.58
2022-09-28T20:22:43.880Z,64.77
2022-09-28T20:25:12.689Z,65.27
2022-09-28T20:27:45.620Z,65.19
2022-09-28T20:30:17.119Z,65.33
2022-09-28T20:32:49.574Z,64.85
2022-09-28T20:35:32.072Z,65.20
2022-09-28T20:38:16.119Z,65.80
2022-09-28T20:40:45.332Z,65.78
2022-09-28T20:43:21.510Z,65.85
2022-09-28T20:45:57.146Z,65.85
2022-09-28T20:48:27.210Z,66.35
2022-09-28T20:51:03.530Z,66.19
2022-09-28T20:53:34.651Z,66.15
2022-09-28T20:56:04.879Z,66.33
2022-09-28T20:58:33.759Z,66.31
2022-09-28T21:01:11.257Z,66.71
2022-09-28T21:03:40.253Z,66.73
2022-09-28T21:06:12.249Z,66.28
2022-09-28T21:08:42.830Z,66.68
2022-09-28T21:11:11.801Z,66.54
2022-09-28T21:13:41.719Z,66.70
2022-09-28T21:16:13.020Z,67.24
2022-09-28T21:18:42.389Z,67.44
2022-09-28T21:21:14.658Z,67.27
2022-09-28T21:23:45.132Z,67.29
2022-09-28T21:26:16.057Z,67.59
2022-09-28T21:28:46.140Z,67.70
2022-09-28T21:31:15.722Z,67.66
2022-09-28T21:33:44.329Z,67.54
2022-09-28T21:36:14.299Z,67.79
2022-09-28T21:38:45.510Z,68.03
2022-09-28T21:41:14.559Z,67.91
2022-09-28T21:43:43.083Z,67.92
2022-09-28T21:46:12.009Z,68.11
2022-09-28T21:48:40.620Z,68.21
2022-09-28T21:51:11.679Z,68.30
2022-09-28T21:53:40.731Z,68.20
2022-09-28T21:56:13.740Z,68.40
2022-09-28T21:58:42.742Z,68.48
2022-09-28T22:01:14.900Z,68.90
2022-09-28T22:03:45.444Z,68.83
2022-09-28T22:06:14.499Z,69.20
2022-09-28T22:08:43.210Z,68.82
2022-09-28T22:11:15.730Z,69.05
2022-09-28T22:13:45.930Z,69.18
2022-09-28T22:16:19.403Z,69.43
2022-09-28T22:18:48.639Z,69.46
2022-09-28T22:21:20.310Z,69.39
2022-09-28T22:23:49.400Z,69.60
2022-09-28T22:26:21.171Z,69.71
2022-09-28T22:28:52.629Z,69.65
2022-09-28T22:31:23.103Z,69.84
2022-09-28T22:33:54.959Z,69.80
2022-09-28T22:36:23.979Z,69.86
2022-09-28T22:38:52.570Z,69.74
2022-09-28T22:41:23.269Z,69.83
2022-09-28T22:43:53.195Z,70.24
2022-09-28T22:46:23.320Z,70.29
2022-09-28T22:48:54.129Z,70.36
2022-09-28T22:51:24.589Z,70.19
2022-09-28T22:53:55.420Z,70.35
2022-09-28T22:56:27.789Z,70.35
2022-09-28T22:59:00.650Z,70.57
2022-09-28T23:01:36.076Z,70.76
2022-09-28T23:04:06.714Z,70.61
2022-09-28T23:06:41.559Z,70.49
2022-09-28T23:09:15.005Z,70.08
2022-09-28T23:11:45.210Z,70.14
2022-09-28T23:14:14.565Z,70.11
2022-09-28T23:16:43.072Z,69.88
2022-09-28T23:19:11.779Z,69.95
2022-09-28T23:21:43.057Z,70.01
2022-09-28T23:24:14.860Z,70.03
2022-09-28T23:26:48.939Z,70.20
2022-09-28T23:29:17.509Z,70.03
2022-09-28T23:31:46.463Z,70.00
2022-09-28T23:34:15.119Z,70.25
2022-09-28T23:36:43.839Z,70.03
2022-09-28T23:39:13.696Z,70.26
2022-09-28T23:41:42.259Z,69.99
2022-09-28T23:44:12.449Z,69.94
2022-09-28T23:46:41.812Z,70.11
2022-09-28T23:49:10.504Z,69.98
2022-09-28T23:51:39.519Z,69.99
2022-09-28T23:54:10.109Z,70.03
2022-09-28T23:56:38.809Z,70.18
2022-09-28T23:59:07.521Z,70.18
